sensor_id;sensor_type;location;lat;lon;timestamp;P1;durP1;ratioP1;P2;durP2;ratioP2
29958;SDS011;16815;51.100;6.516;2023-11-21T00:02:19;8.63;;;7.33;;
29958;SDS011;16815;51.100;6.516;2023-11-21T00:04:45;8.63;;;7.07;;
29958;SDS011;16815;51.100;6.516;2023-11-21T00:07:12;10.30;;;7.50;;
29958;SDS011;16815;51.100;6.516;2023-11-21T00:09:39;10.33;;;7.20;;
29958;SDS011;16815;51.100;6.516;2023-11-21T00:12:07;9.50;;;7.67;;
29958;SDS011;16815;51.100;6.516;2023-11-21T00:14:37;13.17;;;7.67;;
29958;SDS011;16815;51.100;6.516;2023-11-21T00:17:03;13.03;;;8.43;;
29958;SDS011;16815;51.100;6.516;2023-11-21T00:19:30;9.33;;;7.70;;
29958;SDS011;16815;51.100;6.516;2023-11-21T00:21:56;10.63;;;7.43;;
29958;SDS011;16815;51.100;6.516;2023-11-21T00:24:23;10.33;;;7.97;;
29958;SDS011;16815;51.100;6.516;2023-11-21T00:26:49;12.60;;;7.97;;
29958;SDS011;16815;51.100;6.516;2023-11-21T00:29:15;10.33;;;7.93;;
29958;SDS011;16815;51.100;6.516;2023-11-21T00:31:42;9.63;;;8.13;;
29958;SDS011;16815;51.100;6.516;2023-11-21T00:34:09;12.27;;;8.57;;
29958;SDS011;16815;51.100;6.516;2023-11-21T00:36:35;16.73;;;9.40;;
29958;SDS011;16815;51.100;6.516;2023-11-21T00:39:01;11.27;;;8.47;;
29958;SDS011;16815;51.100;6.516;2023-11-21T00:41:28;15.10;;;8.90;;
29958;SDS011;16815;51.100;6.516;2023-11-21T00:43:54;11.20;;;9.10;;
29958;SDS011;16815;51.100;6.516;2023-11-21T00:46:20;12.50;;;9.10;;
29958;SDS011;16815;51.100;6.516;2023-11-21T00:48:46;12.63;;;8.07;;
29958;SDS011;16815;51.100;6.516;2023-11-21T00:51:12;13.17;;;9.13;;
29958;SDS011;16815;51.100;6.516;2023-11-21T00:53:38;12.17;;;8.40;;
29958;SDS011;16815;51.100;6.516;2023-11-21T00:56:04;15.07;;;9.37;;
29958;SDS011;16815;51.100;6.516;2023-11-21T00:58:31;10.83;;;8.90;;
29958;SDS011;16815;51.100;6.516;2023-11-21T01:00:57;11.50;;;8.63;;
29958;SDS011;16815;51.100;6.516;2023-11-21T01:03:23;13.07;;;8.57;;
29958;SDS011;16815;51.100;6.516;2023-11-21T01:05:49;15.00;;;9.23;;
29958;SDS011;16815;51.100;6.516;2023-11-21T01:08:15;11.93;;;8.63;;
29958;SDS011;16815;51.100;6.516;2023-11-21T01:10:41;13.67;;;8.23;;
29958;SDS011;16815;51.100;6.516;2023-11-21T01:13:07;10.20;;;8.00;;
29958;SDS011;16815;51.100;6.516;2023-11-21T01:15:33;12.93;;;9.27;;
29958;SDS011;16815;51.100;6.516;2023-11-21T01:17:59;10.80;;;7.97;;
29958;SDS011;16815;51.100;6.516;2023-11-21T01:20:25;12.23;;;8.43;;
29958;SDS011;16815;51.100;6.516;2023-11-21T01:22:51;12.10;;;8.70;;
29958;SDS011;16815;51.100;6.516;2023-11-21T01:25:18;11.93;;;7.90;;
29958;SDS011;16815;51.100;6.516;2023-11-21T01:27:46;9.97;;;8.07;;
29958;SDS011;16815;51.100;6.516;2023-11-21T01:30:12;8.13;;;7.17;;
29958;SDS011;16815;51.100;6.516;2023-11-21T01:32:38;9.73;;;7.67;;
29958;SDS011;16815;51.100;6.516;2023-11-21T01:35:05;10.77;;;8.70;;
29958;SDS011;16815;51.100;6.516;2023-11-21T01:37:35;11.10;;;8.77;;
29958;SDS011;16815;51.100;6.516;2023-11-21T01:40:01;14.23;;;9.43;;
29958;SDS011;16815;51.100;6.516;2023-11-21T01:42:30;14.90;;;9.97;;
29958;SDS011;16815;51.100;6.516;2023-11-21T01:44:56;13.80;;;10.37;;
29958;SDS011;16815;51.100;6.516;2023-11-21T01:47:21;13.47;;;10.63;;
29958;SDS011;16815;51.100;6.516;2023-11-21T01:49:47;16.13;;;11.20;;
29958;SDS011;16815;51.100;6.516;2023-11-21T01:52:13;12.10;;;10.13;;
29958;SDS011;16815;51.100;6.516;2023-11-21T01:54:40;15.37;;;10.27;;
29958;SDS011;16815;51.100;6.516;2023-11-21T01:57:07;17.33;;;11.60;;
29958;SDS011;16815;51.100;6.516;2023-11-21T01:59:37;15.77;;;11.83;;
29958;SDS011;16815;51.100;6.516;2023-11-21T02:02:03;16.10;;;11.67;;
29958;SDS011;16815;51.100;6.516;2023-11-21T02:04:33;14.90;;;11.70;;
29958;SDS011;16815;51.100;6.516;2023-11-21T02:06:59;15.43;;;12.13;;
29958;SDS011;16815;51.100;6.516;2023-11-21T02:09:25;18.07;;;12.93;;
29958;SDS011;16815;51.100;6.516;2023-11-21T02:11:52;18.13;;;12.10;;
29958;SDS011;16815;51.100;6.516;2023-11-21T02:14:18;18.17;;;13.63;;
29958;SDS011;16815;51.100;6.516;2023-11-21T02:16:47;20.67;;;13.40;;
29958;SDS011;16815;51.100;6.516;2023-11-21T02:19:14;20.63;;;13.13;;
29958;SDS011;16815;51.100;6.516;2023-11-21T02:21:41;17.33;;;12.40;;
29958;SDS011;16815;51.100;6.516;2023-11-21T02:24:07;16.77;;;13.53;;
29958;SDS011;16815;51.100;6.516;2023-11-21T02:26:33;18.60;;;13.57;;
29958;SDS011;16815;51.100;6.516;2023-11-21T02:29:00;17.50;;;13.63;;
29958;SDS011;16815;51.100;6.516;2023-11-21T02:31:29;17.33;;;12.80;;
29958;SDS011;16815;51.100;6.516;2023-11-21T02:33:55;16.97;;;13.30;;
29958;SDS011;16815;51.100;6.516;2023-11-21T02:36:21;20.27;;;14.57;;
29958;SDS011;16815;51.100;6.516;2023-11-21T02:38:47;16.97;;;13.37;;
29958;SDS011;16815;51.100;6.516;2023-11-21T02:41:13;17.30;;;12.87;;
29958;SDS011;16815;51.100;6.516;2023-11-21T02:43:39;19.80;;;12.97;;
29958;SDS011;16815;51.100;6.516;2023-11-21T02:46:05;21.97;;;13.63;;
29958;SDS011;16815;51.100;6.516;2023-11-21T02:48:32;17.17;;;12.83;;
29958;SDS011;16815;51.100;6.516;2023-11-21T02:50:57;20.03;;;14.23;;
29958;SDS011;16815;51.100;6.516;2023-11-21T02:53:23;20.97;;;14.07;;
29958;SDS011;16815;51.100;6.516;2023-11-21T02:55:50;21.90;;;15.33;;
29958;SDS011;16815;51.100;6.516;2023-11-21T02:58:16;20.93;;;14.73;;
29958;SDS011;16815;51.100;6.516;2023-11-21T03:00:42;18.30;;;13.47;;
29958;SDS011;16815;51.100;6.516;2023-11-21T03:03:08;21.10;;;15.37;;
29958;SDS011;16815;51.100;6.516;2023-11-21T03:05:34;20.73;;;14.77;;
29958;SDS011;16815;51.100;6.516;2023-11-21T03:08:02;17.47;;;13.27;;
29958;SDS011;16815;51.100;6.516;2023-11-21T03:10:28;16.80;;;13.23;;
29958;SDS011;16815;51.100;6.516;2023-11-21T03:12:53;16.33;;;13.33;;
29958;SDS011;16815;51.100;6.516;2023-11-21T03:15:19;19.63;;;13.40;;
29958;SDS011;16815;51.100;6.516;2023-11-21T03:17:45;18.43;;;14.23;;
29958;SDS011;16815;51.100;6.516;2023-11-21T03:20:14;17.37;;;13.27;;
29958;SDS011;16815;51.100;6.516;2023-11-21T03:22:41;19.47;;;14.40;;
29958;SDS011;16815;51.100;6.516;2023-11-21T03:25:07;18.47;;;13.73;;
29958;SDS011;16815;51.100;6.516;2023-11-21T03:27:36;17.93;;;14.13;;
29958;SDS011;16815;51.100;6.516;2023-11-21T03:30:03;18.53;;;13.20;;
29958;SDS011;16815;51.100;6.516;2023-11-21T03:32:31;18.33;;;12.70;;
29958;SDS011;16815;51.100;6.516;2023-11-21T03:34:58;17.23;;;13.03;;
29958;SDS011;16815;51.100;6.516;2023-11-21T03:37:24;15.87;;;12.00;;
29958;SDS011;16815;51.100;6.516;2023-11-21T03:39:52;18.17;;;13.93;;
29958;SDS011;16815;51.100;6.516;2023-11-21T03:42:18;17.37;;;13.60;;
29958;SDS011;16815;51.100;6.516;2023-11-21T03:44:44;17.03;;;13.13;;
29958;SDS011;16815;51.100;6.516;2023-11-21T03:47:10;17.23;;;12.13;;
29958;SDS011;16815;51.100;6.516;2023-11-21T03:49:36;19.07;;;13.33;;
29958;SDS011;16815;51.100;6.516;2023-11-21T03:52:02;17.03;;;12.47;;
29958;SDS011;16815;51.100;6.516;2023-11-21T03:54:28;15.67;;;12.33;;
29958;SDS011;16815;51.100;6.516;2023-11-21T03:56:54;20.37;;;15.10;;
29958;SDS011;16815;51.100;6.516;2023-11-21T03:59:21;27.57;;;19.50;;
29958;SDS011;16815;51.100;6.516;2023-11-21T04:01:49;32.70;;;21.27;;
29958;SDS011;16815;51.100;6.516;2023-11-21T04:04:18;35.47;;;24.17;;
29958;SDS011;16815;51.100;6.516;2023-11-21T04:06:44;36.67;;;25.10;;
29958;SDS011;16815;51.100;6.516;2023-11-21T04:09:10;40.37;;;26.20;;
29958;SDS011;16815;51.100;6.516;2023-11-21T04:11:37;37.97;;;24.50;;
29958;SDS011;16815;51.100;6.516;2023-11-21T04:14:03;33.93;;;23.13;;
29958;SDS011;16815;51.100;6.516;2023-11-21T04:16:29;31.97;;;21.87;;
29958;SDS011;16815;51.100;6.516;2023-11-21T04:18:55;28.53;;;20.03;;
29958;SDS011;16815;51.100;6.516;2023-11-21T04:21:22;28.53;;;19.87;;
29958;SDS011;16815;51.100;6.516;2023-11-21T04:23:49;22.93;;;17.97;;
29958;SDS011;16815;51.100;6.516;2023-11-21T04:26:15;26.00;;;18.07;;
29958;SDS011;16815;51.100;6.516;2023-11-21T04:28:41;24.87;;;18.27;;
29958;SDS011;16815;51.100;6.516;2023-11-21T04:31:07;20.97;;;16.53;;
29958;SDS011;16815;51.100;6.516;2023-11-21T04:33:33;20.43;;;15.80;;
29958;SDS011;16815;51.100;6.516;2023-11-21T04:35:59;22.20;;;16.40;;
29958;SDS011;16815;51.100;6.516;2023-11-21T04:38:25;19.97;;;14.97;;
29958;SDS011;16815;51.100;6.516;2023-11-21T04:40:51;21.13;;;15.00;;
29958;SDS011;16815;51.100;6.516;2023-11-21T04:43:17;19.67;;;14.30;;
29958;SDS011;16815;51.100;6.516;2023-11-21T04:45:43;19.87;;;15.10;;
29958;SDS011;16815;51.100;6.516;2023-11-21T04:48:10;21.67;;;15.33;;
29958;SDS011;16815;51.100;6.516;2023-11-21T04:50:36;20.67;;;14.73;;
29958;SDS011;16815;51.100;6.516;2023-11-21T04:53:02;21.40;;;15.03;;
29958;SDS011;16815;51.100;6.516;2023-11-21T04:55:28;20.33;;;14.50;;
29958;SDS011;16815;51.100;6.516;2023-11-21T04:57:54;23.87;;;15.80;;
29958;SDS011;16815;51.100;6.516;2023-11-21T05:00:20;21.63;;;14.70;;
29958;SDS011;16815;51.100;6.516;2023-11-21T05:02:46;22.93;;;15.30;;
29958;SDS011;16815;51.100;6.516;2023-11-21T05:05:12;21.63;;;15.47;;
29958;SDS011;16815;51.100;6.516;2023-11-21T05:07:39;25.03;;;16.40;;
29958;SDS011;16815;51.100;6.516;2023-11-21T05:10:06;27.93;;;17.37;;
29958;SDS011;16815;51.100;6.516;2023-11-21T05:12:35;27.27;;;17.07;;
29958;SDS011;16815;51.100;6.516;2023-11-21T05:15:04;26.67;;;17.63;;
29958;SDS011;16815;51.100;6.516;2023-11-21T05:17:33;30.87;;;18.40;;
29958;SDS011;16815;51.100;6.516;2023-11-21T05:20:02;30.47;;;18.27;;
29958;SDS011;16815;51.100;6.516;2023-11-21T05:22:33;28.77;;;18.93;;
29958;SDS011;16815;51.100;6.516;2023-11-21T05:24:59;31.17;;;18.23;;
29958;SDS011;16815;51.100;6.516;2023-11-21T05:27:25;28.73;;;19.17;;
29958;SDS011;16815;51.100;6.516;2023-11-21T05:29:51;26.30;;;18.07;;
29958;SDS011;16815;51.100;6.516;2023-11-21T05:32:17;28.20;;;18.17;;
29958;SDS011;16815;51.100;6.516;2023-11-21T05:34:43;27.47;;;17.70;;
29958;SDS011;16815;51.100;6.516;2023-11-21T05:37:09;25.53;;;17.30;;
29958;SDS011;16815;51.100;6.516;2023-11-21T05:39:35;29.03;;;18.27;;
29958;SDS011;16815;51.100;6.516;2023-11-21T05:42:01;32.30;;;19.73;;
29958;SDS011;16815;51.100;6.516;2023-11-21T05:44:28;30.03;;;19.90;;
29958;SDS011;16815;51.100;6.516;2023-11-21T05:46:54;33.70;;;21.60;;
29958;SDS011;16815;51.100;6.516;2023-11-21T05:49:22;34.03;;;21.37;;
29958;SDS011;16815;51.100;6.516;2023-11-21T05:51:51;30.40;;;20.83;;
29958;SDS011;16815;51.100;6.516;2023-11-21T05:54:18;34.07;;;22.13;;
29958;SDS011;16815;51.100;6.516;2023-11-21T05:56:44;37.20;;;23.10;;
29958;SDS011;16815;51.100;6.516;2023-11-21T05:59:11;33.77;;;21.70;;
29958;SDS011;16815;51.100;6.516;2023-11-21T06:01:37;33.40;;;22.10;;
29958;SDS011;16815;51.100;6.516;2023-11-21T06:04:04;33.70;;;23.27;;
29958;SDS011;16815;51.100;6.516;2023-11-21T06:06:30;33.03;;;21.73;;
29958;SDS011;16815;51.100;6.516;2023-11-21T06:08:56;35.83;;;22.73;;
29958;SDS011;16815;51.100;6.516;2023-11-21T06:11:22;32.70;;;20.80;;
29958;SDS011;16815;51.100;6.516;2023-11-21T06:13:49;33.73;;;22.23;;
29958;SDS011;16815;51.100;6.516;2023-11-21T06:16:15;34.83;;;21.13;;
29958;SDS011;16815;51.100;6.516;2023-11-21T06:18:43;34.70;;;20.67;;
29958;SDS011;16815;51.100;6.516;2023-11-21T06:21:09;32.40;;;21.07;;
29958;SDS011;16815;51.100;6.516;2023-11-21T06:23:35;28.87;;;20.50;;
29958;SDS011;16815;51.100;6.516;2023-11-21T06:26:01;30.10;;;20.97;;
29958;SDS011;16815;51.100;6.516;2023-11-21T06:28:29;27.63;;;20.07;;
29958;SDS011;16815;51.100;6.516;2023-11-21T06:30:55;28.93;;;19.53;;
29958;SDS011;16815;51.100;6.516;2023-11-21T06:33:22;30.50;;;20.47;;
29958;SDS011;16815;51.100;6.516;2023-11-21T06:35:48;28.43;;;19.40;;
29958;SDS011;16815;51.100;6.516;2023-11-21T06:38:14;28.77;;;20.10;;
29958;SDS011;16815;51.100;6.516;2023-11-21T06:40:40;30.07;;;19.77;;
29958;SDS011;16815;51.100;6.516;2023-11-21T06:43:06;32.93;;;20.37;;
29958;SDS011;16815;51.100;6.516;2023-11-21T06:45:33;28.47;;;20.50;;
29958;SDS011;16815;51.100;6.516;2023-11-21T06:48:02;29.03;;;20.27;;
29958;SDS011;16815;51.100;6.516;2023-11-21T06:50:28;28.43;;;20.03;;
29958;SDS011;16815;51.100;6.516;2023-11-21T06:52:54;29.63;;;20.43;;
29958;SDS011;16815;51.100;6.516;2023-11-21T06:55:20;30.17;;;20.93;;
29958;SDS011;16815;51.100;6.516;2023-11-21T06:57:45;32.63;;;20.97;;
29958;SDS011;16815;51.100;6.516;2023-11-21T07:00:12;31.47;;;21.70;;
29958;SDS011;16815;51.100;6.516;2023-11-21T07:02:39;32.60;;;20.87;;
29958;SDS011;16815;51.100;6.516;2023-11-21T07:05:05;31.87;;;20.53;;
29958;SDS011;16815;51.100;6.516;2023-11-21T07:07:31;33.03;;;20.73;;
29958;SDS011;16815;51.100;6.516;2023-11-21T07:09:59;34.23;;;21.63;;
29958;SDS011;16815;51.100;6.516;2023-11-21T07:12:28;33.97;;;21.73;;
29958;SDS011;16815;51.100;6.516;2023-11-21T07:14:53;37.03;;;21.53;;
29958;SDS011;16815;51.100;6.516;2023-11-21T07:17:19;38.00;;;22.50;;
29958;SDS011;16815;51.100;6.516;2023-11-21T07:19:48;36.43;;;22.43;;
29958;SDS011;16815;51.100;6.516;2023-11-21T07:22:14;38.20;;;23.10;;
29958;SDS011;16815;51.100;6.516;2023-11-21T07:24:46;36.20;;;22.60;;
29958;SDS011;16815;51.100;6.516;2023-11-21T07:27:13;38.27;;;23.73;;
29958;SDS011;16815;51.100;6.516;2023-11-21T07:29:39;34.90;;;22.43;;
29958;SDS011;16815;51.100;6.516;2023-11-21T07:32:05;35.30;;;22.23;;
29958;SDS011;16815;51.100;6.516;2023-11-21T07:34:31;39.53;;;22.90;;
29958;SDS011;16815;51.100;6.516;2023-11-21T07:36:57;35.43;;;21.90;;
29958;SDS011;16815;51.100;6.516;2023-11-21T07:39:23;34.07;;;21.23;;
29958;SDS011;16815;51.100;6.516;2023-11-21T07:41:50;36.07;;;22.77;;
29958;SDS011;16815;51.100;6.516;2023-11-21T07:44:16;38.87;;;23.13;;
29958;SDS011;16815;51.100;6.516;2023-11-21T07:46:42;37.13;;;21.13;;
29958;SDS011;16815;51.100;6.516;2023-11-21T07:49:09;40.50;;;21.27;;
29958;SDS011;16815;51.100;6.516;2023-11-21T07:51:35;37.30;;;21.60;;
29958;SDS011;16815;51.100;6.516;2023-11-21T07:54:01;33.10;;;20.07;;
29958;SDS011;16815;51.100;6.516;2023-11-21T07:56:27;38.47;;;21.47;;
29958;SDS011;16815;51.100;6.516;2023-11-21T07:58:52;33.87;;;19.17;;
29958;SDS011;16815;51.100;6.516;2023-11-21T08:01:19;35.93;;;20.83;;
29958;SDS011;16815;51.100;6.516;2023-11-21T08:03:45;35.47;;;20.27;;
29958;SDS011;16815;51.100;6.516;2023-11-21T08:06:12;36.40;;;20.73;;
29958;SDS011;16815;51.100;6.516;2023-11-21T08:08:37;31.87;;;19.30;;
29958;SDS011;16815;51.100;6.516;2023-11-21T08:11:03;32.27;;;19.80;;
29958;SDS011;16815;51.100;6.516;2023-11-21T08:13:30;32.03;;;19.03;;
29958;SDS011;16815;51.100;6.516;2023-11-21T08:15:56;31.83;;;18.67;;
29958;SDS011;16815;51.100;6.516;2023-11-21T08:18:26;32.20;;;19.53;;
29958;SDS011;16815;51.100;6.516;2023-11-21T08:20:52;38.63;;;20.00;;
29958;SDS011;16815;51.100;6.516;2023-11-21T08:23:20;33.87;;;19.00;;
29958;SDS011;16815;51.100;6.516;2023-11-21T08:25:50;32.53;;;19.23;;
29958;SDS011;16815;51.100;6.516;2023-11-21T08:28:16;35.47;;;20.20;;
29958;SDS011;16815;51.100;6.516;2023-11-21T08:30:42;34.93;;;20.10;;
29958;SDS011;16815;51.100;6.516;2023-11-21T08:33:09;32.87;;;20.17;;
29958;SDS011;16815;51.100;6.516;2023-11-21T08:35:36;35.27;;;19.43;;
29958;SDS011;16815;51.100;6.516;2023-11-21T08:38:02;36.57;;;19.33;;
29958;SDS011;16815;51.100;6.516;2023-11-21T08:40:28;33.67;;;19.20;;
29958;SDS011;16815;51.100;6.516;2023-11-21T08:42:54;34.00;;;18.67;;
29958;SDS011;16815;51.100;6.516;2023-11-21T08:45:21;31.63;;;18.87;;
29958;SDS011;16815;51.100;6.516;2023-11-21T08:47:47;30.27;;;18.23;;
29958;SDS011;16815;51.100;6.516;2023-11-21T08:50:13;29.07;;;18.00;;
29958;SDS011;16815;51.100;6.516;2023-11-21T08:52:40;32.50;;;18.37;;
29958;SDS011;16815;51.100;6.516;2023-11-21T08:55:07;30.30;;;17.17;;
29958;SDS011;16815;51.100;6.516;2023-11-21T08:57:36;30.37;;;17.50;;
29958;SDS011;16815;51.100;6.516;2023-11-21T09:00:03;28.47;;;17.57;;
29958;SDS011;16815;51.100;6.516;2023-11-21T09:02:32;30.50;;;17.27;;
29958;SDS011;16815;51.100;6.516;2023-11-21T09:04:59;29.97;;;17.83;;
29958;SDS011;16815;51.100;6.516;2023-11-21T09:07:28;31.70;;;16.93;;
29958;SDS011;16815;51.100;6.516;2023-11-21T09:09:54;32.47;;;18.07;;
29958;SDS011;16815;51.100;6.516;2023-11-21T09:12:20;29.40;;;17.10;;
29958;SDS011;16815;51.100;6.516;2023-11-21T09:14:46;27.53;;;17.37;;
29958;SDS011;16815;51.100;6.516;2023-11-21T09:17:12;33.13;;;19.27;;
29958;SDS011;16815;51.100;6.516;2023-11-21T09:19:39;32.67;;;18.23;;
29958;SDS011;16815;51.100;6.516;2023-11-21T09:22:06;27.50;;;16.77;;
29958;SDS011;16815;51.100;6.516;2023-11-21T09:24:32;29.53;;;16.53;;
29958;SDS011;16815;51.100;6.516;2023-11-21T09:26:58;29.60;;;17.43;;
29958;SDS011;16815;51.100;6.516;2023-11-21T09:29:25;28.90;;;16.73;;
29958;SDS011;16815;51.100;6.516;2023-11-21T09:31:51;31.60;;;17.70;;
29958;SDS011;16815;51.100;6.516;2023-11-21T09:34:17;28.23;;;17.03;;
29958;SDS011;16815;51.100;6.516;2023-11-21T09:36:46;29.77;;;17.53;;
29958;SDS011;16815;51.100;6.516;2023-11-21T09:39:12;28.83;;;16.30;;
29958;SDS011;16815;51.100;6.516;2023-11-21T09:41:49;24.97;;;15.33;;
29958;SDS011;16815;51.100;6.516;2023-11-21T09:44:20;25.80;;;15.90;;
29958;SDS011;16815;51.100;6.516;2023-11-21T09:46:48;30.03;;;17.80;;
29958;SDS011;16815;51.100;6.516;2023-11-21T09:49:14;27.17;;;16.10;;
29958;SDS011;16815;51.100;6.516;2023-11-21T09:51:43;25.90;;;15.17;;
29958;SDS011;16815;51.100;6.516;2023-11-21T09:54:10;28.93;;;15.90;;
29958;SDS011;16815;51.100;6.516;2023-11-21T09:56:39;26.87;;;15.77;;
29958;SDS011;16815;51.100;6.516;2023-11-21T09:59:06;28.27;;;16.77;;
29958;SDS011;16815;51.100;6.516;2023-11-21T10:01:35;26.77;;;15.00;;
29958;SDS011;16815;51.100;6.516;2023-11-21T10:04:05;25.53;;;15.73;;
29958;SDS011;16815;51.100;6.516;2023-11-21T10:06:36;27.63;;;16.30;;
29958;SDS011;16815;51.100;6.516;2023-11-21T10:09:03;28.60;;;15.97;;
29958;SDS011;16815;51.100;6.516;2023-11-21T10:11:34;28.27;;;15.67;;
29958;SDS011;16815;51.100;6.516;2023-11-21T10:14:00;25.47;;;16.13;;
29958;SDS011;16815;51.100;6.516;2023-11-21T10:16:27;28.70;;;16.07;;
29958;SDS011;16815;51.100;6.516;2023-11-21T10:18:53;27.50;;;16.10;;
29958;SDS011;16815;51.100;6.516;2023-11-21T10:21:20;24.57;;;15.23;;
29958;SDS011;16815;51.100;6.516;2023-11-21T10:23:46;26.77;;;15.33;;
29958;SDS011;16815;51.100;6.516;2023-11-21T10:26:13;23.80;;;14.37;;
29958;SDS011;16815;51.100;6.516;2023-11-21T10:28:41;22.43;;;14.07;;
29958;SDS011;16815;51.100;6.516;2023-11-21T10:31:07;27.10;;;15.20;;
29958;SDS011;16815;51.100;6.516;2023-11-21T10:33:33;27.03;;;14.87;;
29958;SDS011;16815;51.100;6.516;2023-11-21T10:35:59;23.37;;;14.30;;
29958;SDS011;16815;51.100;6.516;2023-11-21T10:38:26;20.47;;;12.50;;
29958;SDS011;16815;51.100;6.516;2023-11-21T10:40:54;23.83;;;13.30;;
29958;SDS011;16815;51.100;6.516;2023-11-21T10:43:20;22.27;;;12.70;;
29958;SDS011;16815;51.100;6.516;2023-11-21T10:45:50;21.07;;;11.97;;
29958;SDS011;16815;51.100;6.516;2023-11-21T10:48:16;21.63;;;11.90;;
29958;SDS011;16815;51.100;6.516;2023-11-21T10:50:43;26.37;;;14.10;;
29958;SDS011;16815;51.100;6.516;2023-11-21T10:53:09;24.53;;;14.17;;
29958;SDS011;16815;51.100;6.516;2023-11-21T10:55:36;26.47;;;15.87;;
29958;SDS011;16815;51.100;6.516;2023-11-21T10:58:03;30.37;;;17.03;;
29958;SDS011;16815;51.100;6.516;2023-11-21T11:38:34;21.90;;;11.27;;
29958;SDS011;16815;51.100;6.516;2023-11-21T12:03:13;22.07;;;11.70;;
29958;SDS011;16815;51.100;6.516;2023-11-21T12:06:00;21.00;;;11.83;;
29958;SDS011;16815;51.100;6.516;2023-11-21T12:08:26;22.77;;;11.87;;
29958;SDS011;16815;51.100;6.516;2023-11-21T12:10:57;21.90;;;12.43;;
29958;SDS011;16815;51.100;6.516;2023-11-21T12:13:23;25.13;;;12.10;;
29958;SDS011;16815;51.100;6.516;2023-11-21T12:15:49;20.87;;;12.90;;
29958;SDS011;16815;51.100;6.516;2023-11-21T12:18:15;27.13;;;12.73;;
29958;SDS011;16815;51.100;6.516;2023-11-21T12:20:41;24.80;;;13.20;;
29958;SDS011;16815;51.100;6.516;2023-11-21T12:23:11;25.67;;;12.87;;
29958;SDS011;16815;51.100;6.516;2023-11-21T12:25:40;26.00;;;11.53;;
29958;SDS011;16815;51.100;6.516;2023-11-21T12:28:07;21.50;;;12.30;;
29958;SDS011;16815;51.100;6.516;2023-11-21T12:30:36;21.97;;;12.67;;
29958;SDS011;16815;51.100;6.516;2023-11-21T12:33:03;24.23;;;12.40;;
29958;SDS011;16815;51.100;6.516;2023-11-21T12:35:32;23.40;;;12.23;;
29958;SDS011;16815;51.100;6.516;2023-11-21T12:37:59;21.07;;;11.03;;
29958;SDS011;16815;51.100;6.516;2023-11-21T12:40:25;19.60;;;11.23;;
29958;SDS011;16815;51.100;6.516;2023-11-21T12:42:53;20.30;;;11.77;;
29958;SDS011;16815;51.100;6.516;2023-11-21T12:45:23;22.20;;;12.07;;
29958;SDS011;16815;51.100;6.516;2023-11-21T12:47:56;20.33;;;12.10;;
29958;SDS011;16815;51.100;6.516;2023-11-21T12:50:25;22.47;;;11.53;;
29958;SDS011;16815;51.100;6.516;2023-11-21T12:52:54;18.00;;;11.30;;
29958;SDS011;16815;51.100;6.516;2023-11-21T12:55:20;21.53;;;12.17;;
29958;SDS011;16815;51.100;6.516;2023-11-21T12:57:50;21.27;;;11.43;;
29958;SDS011;16815;51.100;6.516;2023-11-21T13:00:16;21.57;;;11.57;;
29958;SDS011;16815;51.100;6.516;2023-11-21T13:02:55;18.57;;;11.40;;
29958;SDS011;16815;51.100;6.516;2023-11-21T13:05:28;24.23;;;12.57;;
29958;SDS011;16815;51.100;6.516;2023-11-21T13:08:01;24.53;;;12.67;;
29958;SDS011;16815;51.100;6.516;2023-11-21T13:10:29;24.47;;;13.60;;
29958;SDS011;16815;51.100;6.516;2023-11-21T13:12:56;20.67;;;13.23;;
29958;SDS011;16815;51.100;6.516;2023-11-21T13:15:23;20.70;;;12.93;;
29958;SDS011;16815;51.100;6.516;2023-11-21T13:17:49;21.37;;;12.43;;
29958;SDS011;16815;51.100;6.516;2023-11-21T13:20:16;20.47;;;12.93;;
29958;SDS011;16815;51.100;6.516;2023-11-21T13:22:48;19.03;;;12.40;;
29958;SDS011;16815;51.100;6.516;2023-11-21T13:25:17;20.90;;;12.80;;
29958;SDS011;16815;51.100;6.516;2023-11-21T13:27:44;23.47;;;13.83;;
29958;SDS011;16815;51.100;6.516;2023-11-21T13:30:11;21.03;;;13.83;;
29958;SDS011;16815;51.100;6.516;2023-11-21T13:32:40;26.00;;;15.43;;
29958;SDS011;16815;51.100;6.516;2023-11-21T13:35:06;22.07;;;13.30;;
29958;SDS011;16815;51.100;6.516;2023-11-21T13:37:39;24.33;;;13.87;;
29958;SDS011;16815;51.100;6.516;2023-11-21T13:40:05;20.47;;;13.30;;
29958;SDS011;16815;51.100;6.516;2023-11-21T13:42:39;21.07;;;13.50;;
29958;SDS011;16815;51.100;6.516;2023-11-21T13:45:06;20.40;;;14.10;;
29958;SDS011;16815;51.100;6.516;2023-11-21T13:47:32;20.33;;;13.40;;
29958;SDS011;16815;51.100;6.516;2023-11-21T13:49:59;20.87;;;11.97;;
29958;SDS011;16815;51.100;6.516;2023-11-21T13:52:25;18.50;;;11.97;;
29958;SDS011;16815;51.100;6.516;2023-11-21T13:54:53;19.50;;;12.37;;
29958;SDS011;16815;51.100;6.516;2023-11-21T13:57:19;17.47;;;10.87;;
29958;SDS011;16815;51.100;6.516;2023-11-21T13:59:46;20.10;;;11.93;;
29958;SDS011;16815;51.100;6.516;2023-11-21T14:02:12;19.77;;;10.87;;
29958;SDS011;16815;51.100;6.516;2023-11-21T14:04:42;17.07;;;11.10;;
29958;SDS011;16815;51.100;6.516;2023-11-21T14:07:19;20.13;;;10.80;;
29958;SDS011;16815;51.100;6.516;2023-11-21T14:09:51;19.03;;;12.10;;
29958;SDS011;16815;51.100;6.516;2023-11-21T14:12:18;18.23;;;10.53;;
29958;SDS011;16815;51.100;6.516;2023-11-21T14:14:44;17.23;;;10.63;;
29958;SDS011;16815;51.100;6.516;2023-11-21T14:17:11;17.30;;;9.70;;
29958;SDS011;16815;51.100;6.516;2023-11-21T14:19:37;14.80;;;9.57;;
29958;SDS011;16815;51.100;6.516;2023-11-21T14:22:07;16.30;;;9.67;;
29958;SDS011;16815;51.100;6.516;2023-11-21T14:24:34;12.37;;;8.30;;
29958;SDS011;16815;51.100;6.516;2023-11-21T14:27:01;14.43;;;9.20;;
29958;SDS011;16815;51.100;6.516;2023-11-21T14:29:28;12.83;;;9.43;;
29958;SDS011;16815;51.100;6.516;2023-11-21T14:31:54;16.23;;;10.03;;
29958;SDS011;16815;51.100;6.516;2023-11-21T14:34:22;14.87;;;9.50;;
29958;SDS011;16815;51.100;6.516;2023-11-21T14:36:49;15.40;;;10.73;;
29958;SDS011;16815;51.100;6.516;2023-11-21T14:39:15;15.50;;;10.17;;
29958;SDS011;16815;51.100;6.516;2023-11-21T14:41:48;20.33;;;11.83;;
29958;SDS011;16815;51.100;6.516;2023-11-21T14:44:14;20.03;;;10.80;;
29958;SDS011;16815;51.100;6.516;2023-11-21T14:46:40;19.53;;;12.90;;
29958;SDS011;16815;51.100;6.516;2023-11-21T14:49:11;21.40;;;12.43;;
29958;SDS011;16815;51.100;6.516;2023-11-21T14:51:48;19.53;;;12.53;;
29958;SDS011;16815;51.100;6.516;2023-11-21T14:54:25;18.43;;;13.13;;
29958;SDS011;16815;51.100;6.516;2023-11-21T14:57:05;21.83;;;13.80;;
29958;SDS011;16815;51.100;6.516;2023-11-21T14:59:35;19.93;;;14.03;;
29958;SDS011;16815;51.100;6.516;2023-11-21T15:02:01;19.23;;;13.30;;
29958;SDS011;16815;51.100;6.516;2023-11-21T15:04:39;25.37;;;15.67;;
29958;SDS011;16815;51.100;6.516;2023-11-21T15:07:07;21.23;;;14.93;;
29958;SDS011;16815;51.100;6.516;2023-11-21T15:09:33;23.80;;;15.17;;
29958;SDS011;16815;51.100;6.516;2023-11-21T15:11:59;19.37;;;13.00;;
29958;SDS011;16815;51.100;6.516;2023-11-21T15:14:38;17.43;;;10.80;;
29958;SDS011;16815;51.100;6.516;2023-11-21T15:17:04;13.20;;;9.17;;
29958;SDS011;16815;51.100;6.516;2023-11-21T15:19:32;13.37;;;8.47;;
29958;SDS011;16815;51.100;6.516;2023-11-21T15:21:58;11.67;;;8.77;;
29958;SDS011;16815;51.100;6.516;2023-11-21T15:24:24;14.40;;;10.27;;